Time;durP1;ratioP1;P1;durP2;ratioP2;P2;SDS_P1;SDS_P2;PMS_P1;PMS_P2;Temp;Humidity;BMP_temperature;BMP_pressure;BME280_temperature;BME280_humidity;BME280_pressure;Samples;Min_cycle;Max_cycle;Signal;HPM_P1;HPM_P2
2021/11/17 02:27:27;;;;;;;30.47;18.83;;;7.30;96.10;;;;;;5116168;28;20458;-70
2021/11/17 02:30:15;;;;;;;32.50;18.90;;;7.30;96.00;;;;;;5116072;28;20803;-70
2021/11/17 02:32:55;;;;;;;31.13;17.30;;;7.30;96.00;;;;;;5115997;28;20799;-70
2021/11/17 02:35:43;;;;;;;29.13;18.03;;;7.30;96.10;;;;;;5116129;28;20466;-70
2021/11/17 02:38:28;;;;;;;30.73;17.07;;;7.30;96.20;;;;;;5116285;28;20442;-70
2021/11/17 02:41:20;;;;;;;28.73;16.50;;;7.30;96.20;;;;;;5116258;28;20430;-70
2021/11/17 02:44:04;;;;;;;28.07;17.60;;;7.30;96.30;;;;;;5115650;28;20459;-70
2021/11/17 02:46:47;;;;;;;31.87;16.57;;;7.40;96.40;;;;;;5116016;28;20438;-70
2021/11/17 02:49:44;;;;;;;28.17;17.13;;;7.40;96.30;;;;;;5116100;28;20434;-70
2021/11/17 02:52:26;;;;;;;30.50;17.70;;;7.40;96.30;;;;;;5115645;28;20427;-70
2021/11/17 02:55:12;;;;;;;33.03;18.23;;;7.40;96.30;;;;;;5115804;28;20869;-70
2021/11/17 02:58:01;;;;;;;27.07;15.80;;;7.40;96.40;;;;;;5115592;28;20432;-70
2021/11/17 03:01:00;;;;;;;28.20;15.93;;;7.40;96.40;;;;;;5115471;28;20810;-70
2021/11/17 03:03:49;;;;;;;27.67;16.90;;;7.50;96.30;;;;;;5099782;28;20458;-70
2021/11/17 03:06:29;;;;;;;29.93;18.33;;;7.50;96.30;;;;;;5115661;28;20470;-70
2021/11/17 03:09:14;;;;;;;23.80;14.63;;;7.60;96.20;;;;;;5115365;28;20419;-70
2021/11/17 03:12:00;;;;;;;26.83;16.07;;;7.60;96.00;;;;;;5115556;28;20427;-70
2021/11/17 03:14:47;;;;;;;25.90;14.53;;;7.60;96.20;;;;;;5115475;28;20443;-70
2021/11/17 03:17:41;;;;;;;27.83;16.10;;;7.60;96.20;;;;;;5115453;28;20427;-70
2021/11/17 03:20:39;;;;;;;27.30;17.20;;;7.50;96.10;;;;;;5115280;27;20971;-70
2021/11/17 03:23:18;;;;;;;31.07;17.90;;;7.40;96.50;;;;;;5115368;28;20844;-70
2021/11/17 03:25:58;;;;;;;26.40;14.87;;;7.40;96.40;;;;;;5114900;28;20462;-70
2021/11/17 03:28:40;;;;;;;26.03;16.20;;;7.40;96.40;;;;;;5115248;28;20877;-69
2021/11/17 03:31:26;;;;;;;31.53;16.87;;;7.50;96.60;;;;;;5114911;28;20901;-69
2021/11/17 03:34:32;;;;;;;25.23;16.03;;;7.50;96.60;;;;;;5115117;28;20431;-69
2021/11/17 03:37:14;;;;;;;28.53;16.17;;;7.60;96.60;;;;;;5080889;28;20447;-69
2021/11/17 03:40:09;;;;;;;26.23;15.90;;;7.60;96.40;;;;;;5115080;28;20804;-69
2021/11/17 03:43:06;;;;;;;29.67;15.37;;;7.60;96.40;;;;;;5114952;28;20466;-70
2021/11/17 03:46:01;;;;;;;25.63;15.97;;;7.60;96.20;;;;;;5115646;28;20820;-69
2021/11/17 03:48:52;;;;;;;34.03;18.00;;;7.60;96.30;;;;;;5111218;27;20479;-69
2021/11/17 03:51:35;;;;;;;25.63;14.90;;;7.70;96.30;;;;;;5114499;28;20915;-69
2021/11/17 03:54:22;;;;;;;30.80;18.47;;;7.70;96.30;;;;;;5114767;28;20427;-69
2021/11/17 03:57:13;;;;;;;33.17;17.60;;;7.70;95.90;;;;;;5114740;28;20427;-69
2021/11/17 04:00:03;;;;;;;27.30;17.10;;;7.70;96.00;;;;;;5114418;28;20450;-69
2021/11/17 04:02:53;;;;;;;26.00;16.30;;;7.70;95.90;;;;;;5114637;28;20462;-69
2021/11/17 04:05:42;;;;;;;29.40;17.90;;;7.70;96.10;;;;;;5114516;28;20466;-69
2021/11/17 04:08:32;;;;;;;27.13;15.90;;;7.70;96.10;;;;;;5114457;28;20471;-69
2021/11/17 04:11:20;;;;;;;28.77;18.60;;;7.70;96.20;;;;;;5114192;28;20433;-69
2021/11/17 04:13:57;;;;;;;27.73;16.00;;;7.60;96.20;;;;;;5114143;28;20423;-69
2021/11/17 04:16:37;;;;;;;27.60;15.63;;;7.60;96.40;;;;;;5114358;27;20490;-69
2021/11/17 04:19:17;;;;;;;31.70;17.43;;;7.60;96.50;;;;;;5114711;28;20435;-69
2021/11/17 04:21:57;;;;;;;31.90;18.63;;;7.60;96.60;;;;;;5114830;28;20431;-69
2021/11/17 04:24:42;;;;;;;33.73;17.17;;;7.60;96.60;;;;;;5114278;28;20466;-70
2021/11/17 04:27:27;;;;;;;28.33;18.40;;;7.60;96.70;;;;;;5114829;28;20489;-69
2021/11/17 04:30:18;;;;;;;30.73;17.87;;;7.60;96.60;;;;;;5114323;28;20427;-69
2021/11/17 04:33:04;;;;;;;31.40;17.80;;;7.60;96.80;;;;;;5114962;28;20432;-69
2021/11/17 04:35:59;;;;;;;31.00;17.87;;;7.60;96.90;;;;;;5113856;28;20469;-69
2021/11/17 04:38:50;;;;;;;28.13;17.30;;;7.60;96.70;;;;;;5114277;28;20438;-69
2021/11/17 04:41:31;;;;;;;29.03;18.10;;;7.70;96.70;;;;;;5114133;28;20434;-69
2021/11/17 04:44:15;;;;;;;27.07;16.90;;;7.60;96.60;;;;;;5113592;28;20487;-69
2021/11/17 04:47:06;;;;;;;32.37;19.37;;;7.60;96.40;;;;;;5113987;28;20433;-69
2021/11/17 04:49:48;;;;;;;32.60;19.17;;;7.60;96.50;;;;;;5113903;28;20427;-70
2021/11/17 04:52:32;;;;;;;33.20;18.10;;;7.60;96.50;;;;;;5113906;28;20805;-70
2021/11/17 04:55:26;;;;;;;27.93;17.70;;;7.60;96.50;;;;;;5113817;28;20840;-70
2021/11/17 04:58:18;;;;;;;33.57;19.00;;;7.70;96.50;;;;;;5114396;28;20453;-70
2021/11/17 05:01:10;;;;;;;33.80;18.93;;;7.70;96.50;;;;;;5117823;28;20430;-69
2021/11/17 05:03:50;;;;;;;34.73;19.80;;;7.70;96.30;;;;;;5118097;28;20427;-70
2021/11/17 05:06:32;;;;;;;28.57;17.93;;;7.70;96.30;;;;;;5117913;28;20473;-69
2021/11/17 05:09:09;;;;;;;36.77;21.30;;;7.80;96.40;;;;;;5117658;28;20971;-70
2021/11/17 05:11:47;;;;;;;32.93;19.60;;;7.80;96.20;;;;;;5117905;28;20454;-70
2021/11/17 05:14:26;;;;;;;32.20;19.57;;;7.80;96.10;;;;;;5118532;28;20434;-70
2021/11/17 05:17:08;;;;;;;34.40;20.37;;;7.80;96.20;;;;;;5117718;28;20430;-69
2021/11/17 05:19:43;;;;;;;32.57;19.73;;;7.90;96.20;;;;;;5117481;28;20924;-69
2021/11/17 05:22:39;;;;;;;36.50;19.53;;;7.90;96.20;;;;;;5117783;28;20450;-69
2021/11/17 05:25:22;;;;;;;36.60;19.40;;;7.90;96.40;;;;;;5115380;27;20477;-69
2021/11/17 05:28:04;;;;;;;33.70;20.00;;;7.90;96.00;;;;;;5117607;28;20944;-70
2021/11/17 05:31:01;;;;;;;34.77;20.70;;;7.90;96.00;;;;;;5117590;28;20438;-70
2021/11/17 05:33:50;;;;;;;34.50;19.97;;;7.90;96.00;;;;;;5117186;28;20435;-70
2021/11/17 05:36:27;;;;;;;28.13;18.00;;;7.80;96.40;;;;;;5117383;28;20545;-70
2021/11/17 05:39:07;;;;;;;31.40;18.70;;;7.80;96.00;;;;;;5117349;28;20438;-70
2021/11/17 05:41:52;;;;;;;36.50;20.80;;;7.80;96.10;;;;;;5118071;28;20427;-70
2021/11/17 05:44:31;;;;;;;37.53;21.23;;;7.80;96.20;;;;;;5117241;28;20521;-70
2021/11/17 05:47:13;;;;;;;34.20;20.33;;;7.90;96.20;;;;;;5117194;28;20422;-70
2021/11/17 05:49:51;;;;;;;32.83;20.00;;;7.90;96.10;;;;;;5117145;28;20463;-70
2021/11/17 05:52:33;;;;;;;33.10;20.03;;;8.00;96.00;;;;;;5117116;28;20427;-70
2021/11/17 05:55:15;;;;;;;32.70;17.53;;;8.00;95.80;;;;;;5116987;28;20481;-70
2021/11/17 05:57:56;;;;;;;30.00;17.07;;;8.00;95.80;;;;;;5116673;28;20427;-70
2021/11/17 06:00:42;;;;;;;33.70;18.70;;;8.00;95.70;;;;;;5116982;28;20434;-70
2021/11/17 06:03:27;;;;;;;29.20;17.70;;;8.00;95.70;;;;;;5116922;28;20430;-70
2021/11/17 06:05:53;;;;;;;27.70;18.27;;;8.00;95.60;;;;;;5117804;28;20470;-70
2021/11/17 06:08:20;;;;;;;26.33;16.83;;;8.00;95.60;;;;;;5116676;28;20485;-70
2021/11/17 06:10:50;;;;;;;30.17;18.17;;;8.00;95.50;;;;;;5116054;28;20500;-70
2021/11/17 06:13:17;;;;;;;30.83;18.53;;;8.10;95.40;;;;;;5116478;28;20959;-70
2021/11/17 06:15:46;;;;;;;30.37;18.30;;;8.00;95.30;;;;;;5116675;28;20476;-70
2021/11/17 06:18:16;;;;;;;29.40;18.53;;;8.00;95.40;;;;;;5116646;28;20527;-70
2021/11/17 06:20:43;;;;;;;32.20;17.70;;;8.00;95.40;;;;;;5116533;28;20816;-70
2021/11/17 06:23:14;;;;;;;30.30;17.30;;;8.00;95.40;;;;;;5116441;28;20471;-70
2021/11/17 06:25:43;;;;;;;29.90;18.47;;;8.00;95.50;;;;;;5116396;28;20473;-70
2021/11/17 06:28:11;;;;;;;29.77;18.73;;;8.00;95.50;;;;;;5116304;28;20479;-70
2021/11/17 06:30:41;;;;;;;29.80;17.40;;;8.00;95.50;;;;;;5116411;28;20790;-70
2021/11/17 06:33:11;;;;;;;24.43;16.27;;;8.00;95.40;;;;;;5116312;28;20817;-70
2021/11/17 06:35:40;;;;;;;26.03;15.40;;;8.10;95.40;;;;;;5116204;28;20466;-70
2021/11/17 06:38:08;;;;;;;27.07;16.83;;;8.10;95.50;;;;;;5116239;28;20446;-70
2021/11/17 06:40:36;;;;;;;23.47;15.43;;;8.10;95.40;;;;;;5116608;28;20443;-69
2021/11/17 06:43:04;;;;;;;23.40;16.07;;;8.20;95.50;;;;;;5115659;28;20458;-70
2021/11/17 06:45:37;;;;;;;23.67;15.77;;;8.20;95.40;;;;;;5115982;28;20877;-70
2021/11/17 06:48:05;;;;;;;21.70;15.60;;;8.20;95.30;;;;;;5115754;28;20968;-71
2021/11/17 06:50:32;;;;;;;22.67;15.67;;;8.20;95.20;;;;;;5115996;28;20451;-70
2021/11/17 06:52:59;;;;;;;23.17;14.63;;;8.20;95.10;;;;;;5115949;28;20447;-70
2021/11/17 06:55:26;;;;;;;26.33;15.30;;;8.20;95.10;;;;;;5115915;28;20478;-70
2021/11/17 06:57:53;;;;;;;22.30;14.70;;;8.20;95.10;;;;;;5115995;28;20950;-70
2021/11/17 07:00:22;;;;;;;20.50;14.00;;;8.30;95.10;;;;;;5116340;28;20928;-70
2021/11/17 07:02:50;;;;;;;21.57;13.93;;;8.30;95.00;;;;;;5115922;28;20447;-70
2021/11/17 07:05:18;;;;;;;21.97;13.00;;;8.30;94.90;;;;;;5115336;28;20980;-70
2021/11/17 07:07:45;;;;;;;23.20;13.90;;;8.30;94.90;;;;;;5115601;28;20453;-70
2021/11/17 07:10:14;;;;;;;20.10;12.80;;;8.30;94.90;;;;;;5115651;28;20453;-70
2021/11/17 07:12:42;;;;;;;23.67;13.90;;;8.30;94.90;;;;;;5115241;28;20959;-70
2021/11/17 07:15:13;;;;;;;27.60;16.53;;;8.30;94.70;;;;;;5115404;28;20462;-70
2021/11/17 07:17:39;;;;;;;24.90;15.37;;;8.30;94.70;;;;;;5115517;28;20435;-70
2021/11/17 07:20:09;;;;;;;23.97;15.67;;;8.40;94.80;;;;;;5115093;28;20439;-69
2021/11/17 07:22:37;;;;;;;22.10;15.27;;;8.40;94.70;;;;;;5114265;28;20439;-71
2021/11/17 07:25:05;;;;;;;22.37;15.40;;;8.40;94.70;;;;;;5115223;28;20463;-71
2021/11/17 07:27:32;;;;;;;19.30;14.50;;;8.50;94.70;;;;;;5115223;28;20451;-71
2021/11/17 07:29:59;;;;;;;18.57;15.30;;;8.50;94.70;;;;;;5115090;28;20486;-71
2021/11/17 07:32:28;;;;;;;23.07;17.20;;;8.60;94.70;;;;;;5115188;28;20451;-71
2021/11/17 07:34:55;;;;;;;22.30;15.10;;;8.60;94.70;;;;;;5114811;28;21004;-71
2021/11/17 07:37:23;;;;;;;20.30;15.87;;;8.70;94.80;;;;;;5114773;28;20457;-71
2021/11/17 07:39:51;;;;;;;21.40;15.27;;;8.70;94.70;;;;;;5114971;28;20447;-71
2021/11/17 07:42:17;;;;;;;25.57;16.00;;;8.70;94.50;;;;;;5114545;28;20940;-71
2021/11/17 07:44:45;;;;;;;18.57;13.73;;;8.80;94.40;;;;;;5114573;28;20462;-71
2021/11/17 07:47:12;;;;;;;20.30;13.50;;;8.80;94.30;;;;;;5114638;28;20455;-71
2021/11/17 07:49:39;;;;;;;25.17;15.20;;;8.90;94.20;;;;;;5114742;28;20487;-71
2021/11/17 07:52:06;;;;;;;20.03;14.50;;;8.90;94.10;;;;;;5114774;28;20443;-71
2021/11/17 07:54:35;;;;;;;23.77;13.80;;;9.00;94.10;;;;;;5114694;28;20470;-71
2021/11/17 07:57:03;;;;;;;20.60;15.27;;;9.00;93.90;;;;;;5114722;28;20667;-71
2021/11/17 07:59:32;;;;;;;19.60;13.50;;;9.10;93.90;;;;;;5114731;28;20453;-71
2021/11/17 08:02:02;;;;;;;17.53;13.93;;;9.10;93.70;;;;;;5114638;28;20451;-71
2021/11/17 08:04:34;;;;;;;22.27;14.60;;;9.10;93.70;;;;;;5114630;28;20467;-71
2021/11/17 08:07:02;;;;;;;23.60;17.60;;;9.10;93.60;;;;;;5114244;28;20476;-71
2021/11/17 08:09:30;;;;;;;25.83;15.80;;;9.10;93.60;;;;;;5114325;28;20482;-71
2021/11/17 08:11:58;;;;;;;20.03;14.60;;;9.20;93.60;;;;;;5114117;28;20944;-71
2021/11/17 08:14:25;;;;;;;19.20;13.87;;;9.20;93.60;;;;;;5114279;28;20453;-71
2021/11/17 08:16:52;;;;;;;19.10;13.50;;;9.20;93.50;;;;;;5114097;28;20435;-70
2021/11/17 08:19:19;;;;;;;18.10;13.63;;;9.20;93.50;;;;;;5114388;28;20442;-70
2021/11/17 08:21:45;;;;;;;20.33;14.00;;;9.20;93.40;;;;;;5114301;28;20955;-71
2021/11/17 08:24:12;;;;;;;18.57;14.80;;;9.30;93.50;;;;;;5113922;28;20459;-71
2021/11/17 08:26:39;;;;;;;16.57;13.30;;;9.30;93.40;;;;;;5114026;28;20442;-70
2021/11/17 08:29:09;;;;;;;22.47;15.60;;;9.30;93.50;;;;;;5114084;28;20506;-70
2021/11/17 08:31:35;;;;;;;24.27;15.27;;;9.30;93.50;;;;;;5114151;28;20447;-70
2021/11/17 08:34:02;;;;;;;33.27;16.00;;;9.30;93.50;;;;;;5113819;28;20861;-71
2021/11/17 08:36:29;;;;;;;19.13;14.20;;;9.30;93.60;;;;;;5114036;28;20466;-71
2021/11/17 08:38:56;;;;;;;21.60;14.73;;;9.30;93.60;;;;;;5114084;28;20450;-71
2021/11/17 08:41:25;;;;;;;25.80;15.80;;;9.30;93.70;;;;;;5113657;28;20955;-71
2021/11/17 08:43:52;;;;;;;23.83;15.40;;;9.30;93.70;;;;;;5113562;28;20459;-71
2021/11/17 08:46:22;;;;;;;17.73;13.60;;;9.30;93.70;;;;;;5114286;28;20465;-71
2021/11/17 08:48:50;;;;;;;21.37;13.80;;;9.30;93.60;;;;;;5113898;28;20489;-71
2021/11/17 08:51:18;;;;;;;27.07;13.23;;;9.30;93.60;;;;;;5113537;28;20981;-71
2021/11/17 08:53:47;;;;;;;19.73;14.30;;;9.30;93.70;;;;;;5113876;28;20460;-71
2021/11/17 08:56:15;;;;;;;18.50;13.70;;;9.40;94.10;;;;;;5113822;28;20466;-71
2021/11/17 08:58:43;;;;;;;19.50;14.40;;;9.40;93.70;;;;;;5113509;28;20439;-71
2021/11/17 09:01:11;;;;;;;22.67;14.83;;;9.40;93.60;;;;;;5113512;28;20443;-71
2021/11/17 09:03:39;;;;;;;21.97;14.13;;;9.50;93.70;;;;;;5113876;28;20439;-71
2021/11/17 09:06:08;;;;;;;20.23;14.00;;;9.50;93.60;;;;;;5113744;28;20474;-70
2021/11/17 09:08:35;;;;;;;23.20;14.03;;;9.50;93.60;;;;;;5113677;28;20457;-71
2021/11/17 09:11:05;;;;;;;19.50;13.77;;;9.50;93.50;;;;;;5113744;28;20456;-71
2021/11/17 09:13:33;;;;;;;22.30;15.17;;;9.50;93.50;;;;;;5113695;28;20439;-71
2021/11/17 09:16:01;;;;;;;23.70;15.07;;;9.50;93.50;;;;;;5113729;28;20466;-71
2021/11/17 09:18:32;;;;;;;18.50;12.70;;;9.50;93.60;;;;;;5113678;28;20454;-71
2021/11/17 09:21:02;;;;;;;20.50;14.10;;;9.50;93.60;;;;;;5113695;28;20438;-71
2021/11/17 09:23:30;;;;;;;21.23;14.20;;;9.60;93.70;;;;;;5113336;28;20961;-71
2021/11/17 09:25:58;;;;;;;20.20;13.93;;;9.70;93.70;;;;;;5113548;28;20459;-71
2021/11/17 09:28:27;;;;;;;25.10;15.07;;;9.80;93.80;;;;;;5113599;28;20816;-71
2021/11/17 09:30:55;;;;;;;23.20;15.50;;;9.80;93.60;;;;;;5113583;28;20449;-71
2021/11/17 09:33:24;;;;;;;23.80;16.43;;;9.80;93.60;;;;;;5113531;28;20443;-71
2021/11/17 09:35:51;;;;;;;21.93;16.13;;;9.80;93.60;;;;;;5113591;28;20463;-71
2021/11/17 09:38:19;;;;;;;26.03;16.53;;;9.80;93.70;;;;;;5113329;28;20451;-71
2021/11/17 09:40:49;;;;;;;22.20;15.17;;;9.80;93.80;;;;;;5113556;28;20446;-71
2021/11/17 09:43:19;;;;;;;32.77;17.67;;;9.80;93.80;;;;;;5113107;28;20461;-71
2021/11/17 09:45:49;;;;;;;30.53;18.97;;;9.90;93.90;;;;;;5113645;28;20470;-71
2021/11/17 09:48:19;;;;;;;29.77;18.63;;;9.90;94.10;;;;;;5117217;28;20446;-70
2021/11/17 09:50:51;;;;;;;27.97;18.17;;;9.90;94.40;;;;;;5117094;28;20478;-71
2021/11/17 09:53:25;;;;;;;23.87;16.00;;;9.90;94.50;;;;;;5117189;28;20434;-71
2021/11/17 09:55:55;;;;;;;28.17;16.93;;;9.90;94.70;;;;;;5117102;28;20834;-71
2021/11/17 09:58:24;;;;;;;29.10;18.97;;;10.00;94.20;;;;;;5116821;27;20900;-70
2021/11/17 10:00:55;;;;;;;31.30;20.10;;;10.00;94.10;;;;;;5116986;28;20489;-70
2021/11/17 10:03:29;;;;;;;28.10;18.67;;;10.10;94.30;;;;;;5116960;28;20440;-71
2021/11/17 10:14:24;;;;;;;34.70;19.93;;;10.10;94.80;;;;;;5071910;28;20434;-71
2021/11/17 10:16:51;;;;;;;30.23;19.13;;;10.00;94.90;;;;;;5116798;28;20770;-71
2021/11/17 10:19:22;;;;;;;28.67;18.07;;;10.00;95.00;;;;;;5116588;28;20447;-71
2021/11/17 10:21:59;;;;;;;25.97;18.13;;;10.00;95.20;;;;;;5116665;28;20462;-71
2021/11/17 10:24:42;;;;;;;33.20;19.73;;;9.90;95.80;;;;;;5117062;28;20423;-71
2021/11/17 10:27:11;;;;;;;34.00;20.83;;;9.90;95.90;;;;;;5116584;28;20432;-71
2021/11/17 10:29:40;;;;;;;31.83;19.70;;;9.90;96.00;;;;;;5116256;28;20490;-71
2021/11/17 10:32:16;;;;;;;36.27;20.97;;;10.00;95.40;;;;;;5116249;28;20451;-71
2021/11/17 10:34:52;;;;;;;29.77;19.40;;;9.90;96.00;;;;;;5116149;28;20481;-71
2021/11/17 10:37:28;;;;;;;33.87;20.70;;;9.90;96.30;;;;;;5116224;28;20805;-71
2021/11/17 10:39:57;;;;;;;31.23;19.13;;;9.90;96.50;;;;;;5115920;28;20935;-71
2021/11/17 10:42:31;;;;;;;31.50;18.13;;;9.90;96.70;;;;;;5115770;28;20991;-71
2021/11/17 10:45:00;;;;;;;26.63;17.70;;;9.90;96.70;;;;;;5115753;28;20470;-71
2021/11/17 10:47:35;;;;;;;32.33;18.57;;;9.90;96.80;;;;;;5116064;28;20443;-71
2021/11/17 10:50:17;;;;;;;28.83;18.33;;;9.90;96.90;;;;;;5116036;28;20473;-71
2021/11/17 10:52:48;;;;;;;31.67;19.00;;;9.90;97.00;;;;;;5116090;28;20427;-71
2021/11/17 10:55:20;;;;;;;30.43;18.40;;;9.80;97.10;;;;;;5115906;28;20474;-71
2021/11/17 10:57:48;;;;;;;28.40;16.80;;;9.80;97.40;;;;;;5115378;28;20438;-71
2021/11/17 11:00:19;;;;;;;29.70;18.83;;;9.70;97.50;;;;;;5115454;28;20431;-70
2021/11/17 11:02:47;;;;;;;38.83;19.37;;;9.80;97.70;;;;;;5115731;28;20437;-70
2021/11/17 11:05:17;;;;;;;31.07;18.47;;;9.80;97.70;;;;;;5115357;28;20827;-70
2021/11/17 11:07:48;;;;;;;31.93;19.07;;;9.80;97.70;;;;;;5115458;28;20434;-70
2021/11/17 11:10:22;;;;;;;35.07;19.00;;;9.70;97.80;;;;;;5115538;28;20485;-71
2021/11/17 11:12:50;;;;;;;36.10;19.53;;;9.70;98.00;;;;;;5115262;28;20909;-70
2021/11/17 11:15:21;;;;;;;36.93;20.67;;;9.70;98.20;;;;;;5115084;28;20471;-71
2021/11/17 11:18:38;;;;;;;40.70;22.13;;;9.80;98.40;;;;;;5115559;28;20435;-71
2021/11/17 11:21:07;;;;;;;35.00;21.07;;;9.80;98.30;;;;;;5116240;28;20439;-71
2021/11/17 11:23:36;;;;;;;33.77;20.20;;;9.80;98.20;;;;;;5115058;28;20945;-71
2021/11/17 11:26:17;;;;;;;37.33;21.37;;;9.80;98.10;;;;;;5115257;28;20798;-71
2021/11/17 11:29:21;;;;;;;44.10;21.43;;;9.80;98.40;;;;;;5115291;28;20525;-71
2021/11/17 11:31:49;;;;;;;36.80;20.13;;;9.80;98.90;;;;;;5113986;27;20451;-71
2021/11/17 11:34:42;;;;;;;41.73;21.47;;;9.80;98.40;;;;;;5115073;28;20438;-71
2021/11/17 11:37:13;;;;;;;42.13;20.70;;;9.90;98.60;;;;;;5111603;28;20941;-71
2021/11/17 11:39:44;;;;;;;39.37;22.10;;;9.90;98.50;;;;;;5115065;28;20426;-71
2021/11/17 11:42:27;;;;;;;36.53;21.67;;;10.00;97.80;;;;;;5115556;28;20459;-71
2021/11/17 11:44:57;;;;;;;44.27;21.47;;;10.00;97.60;;;;;;5114922;28;20470;-71
2021/11/17 11:47:50;;;;;;;40.47;20.60;;;10.10;97.50;;;;;;5115275;28;20439;-71
2021/11/17 11:50:57;;;;;;;34.70;21.37;;;10.10;97.60;;;;;;5106352;28;20483;-71
2021/11/17 11:53:49;;;;;;;37.30;20.00;;;10.10;97.50;;;;;;5115680;28;20427;-71
2021/11/17 11:56:22;;;;;;;39.40;21.97;;;10.20;97.60;;;;;;5114779;28;20896;-71
2021/11/17 11:58:49;;;;;;;43.17;21.77;;;10.10;97.40;;;;;;5114770;28;20442;-71
2021/11/17 12:01:21;;;;;;;44.37;22.03;;;10.20;97.60;;;;;;5114724;28;20447;-71
2021/11/17 12:03:56;;;;;;;37.77;20.70;;;10.20;97.50;;;;;;5114682;27;20458;-71
2021/11/17 12:06:29;;;;;;;38.23;20.13;;;10.20;97.50;;;;;;5114572;28;20542;-71
2021/11/17 12:09:07;;;;;;;37.33;20.43;;;10.30;97.50;;;;;;5113994;28;20492;-71
2021/11/17 12:11:35;;;;;;;41.07;21.70;;;10.30;97.60;;;;;;5114370;28;20463;-71
2021/11/17 12:14:05;;;;;;;35.33;21.40;;;10.30;97.50;;;;;;5114462;28;20446;-71
2021/11/17 12:16:37;;;;;;;40.50;22.67;;;10.30;97.50;;;;;;5114357;28;20463;-71
2021/11/17 12:19:07;;;;;;;41.43;20.83;;;10.30;97.70;;;;;;5114516;28;20427;-71
2021/11/17 12:21:53;;;;;;;42.03;21.40;;;10.30;97.70;;;;;;5114384;28;20427;-71
2021/11/17 12:24:27;;;;;;;48.57;23.97;;;10.30;97.80;;;;;;5114335;28;20427;-71
2021/11/17 12:27:01;;;;;;;54.30;23.60;;;10.20;97.90;;;;;;5114067;28;20426;-71
2021/11/17 12:29:30;;;;;;;46.73;22.33;;;10.20;98.20;;;;;;5113952;28;20904;-71
2021/11/17 12:32:05;;;;;;;48.53;22.90;;;10.20;98.30;;;;;;5114192;28;20439;-71
2021/11/17 12:34:38;;;;;;;51.17;24.40;;;10.30;98.20;;;;;;5114164;28;20462;-71
2021/11/17 12:37:09;;;;;;;43.07;22.80;;;10.20;98.30;;;;;;5113866;28;20427;-71
2021/11/17 12:39:50;;;;;;;49.00;25.63;;;10.20;98.50;;;;;;5114111;28;20439;-70
2021/11/17 12:42:25;;;;;;;50.80;26.63;;;10.10;98.60;;;;;;5113755;28;20457;-71
2021/11/17 12:44:52;;;;;;;57.00;25.83;;;10.10;98.70;;;;;;5113604;28;20971;-71
2021/11/17 12:47:22;;;;;;;51.50;25.50;;;10.10;98.80;;;;;;5114009;28;20445;-71
2021/11/17 12:49:53;;;;;;;50.00;25.77;;;10.10;98.90;;;;;;5113908;28;20450;-71
2021/11/17 12:52:23;;;;;;;54.47;27.43;;;10.20;98.80;;;;;;5113632;28;20901;-71
2021/11/17 12:54:54;;;;;;;52.00;26.83;;;10.20;98.80;;;;;;5113608;28;20998;-71
2021/11/17 12:57:25;;;;;;;52.30;26.53;;;10.20;98.80;;;;;;5113892;28;20449;-71
2021/11/17 12:59:54;;;;;;;55.27;28.00;;;10.20;99.00;;;;;;5113787;28;20436;-71
2021/11/17 13:02:42;;;;;;;56.30;28.43;;;10.10;99.00;;;;;;5113807;28;20438;-71
2021/11/17 13:05:21;;;;;;;56.93;29.30;;;10.20;99.30;;;;;;5113811;28;20466;-71
2021/11/17 13:07:50;;;;;;;61.70;28.97;;;10.20;99.30;;;;;;5113575;28;20404;-71
2021/11/17 13:10:32;;;;;;;53.77;27.77;;;10.30;99.40;;;;;;5113659;28;20475;-71
2021/11/17 13:13:11;;;;;;;58.07;29.70;;;10.20;99.20;;;;;;5113749;28;20434;-71
2021/11/17 13:15:45;;;;;;;67.70;30.13;;;10.20;99.30;;;;;;5113738;28;20466;-71
2021/11/17 13:18:26;;;;;;;64.93;30.30;;;10.30;99.40;;;;;;5113703;28;20431;-71
2021/11/17 13:21:06;;;;;;;64.37;30.07;;;10.30;99.40;;;;;;5115961;28;20438;-71
2021/11/17 13:23:38;;;;;;;69.30;31.33;;;10.30;99.40;;;;;;5117452;28;20808;-71
2021/11/17 13:26:25;;;;;;;72.57;32.17;;;10.30;99.40;;;;;;5117706;28;20832;-71
2021/11/17 13:28:53;;;;;;;60.63;28.40;;;10.30;99.60;;;;;;5117342;28;20927;-71
2021/11/17 13:31:32;;;;;;;64.03;31.80;;;10.30;99.70;;;;;;5117490;28;20485;-71
2021/11/17 13:34:02;;;;;;;59.97;30.77;;;10.30;99.70;;;;;;5117601;28;20796;-71
2021/11/17 13:36:50;;;;;;;64.40;32.50;;;10.30;99.90;;;;;;5117349;28;20469;-71
2021/11/17 13:39:19;;;;;;;66.93;32.27;;;10.30;99.90;;;;;;5117509;27;20446;-71
2021/11/17 13:41:50;;;;;;;57.40;29.83;;;10.30;99.90;;;;;;5117261;28;20442;-78
2021/11/17 13:44:20;;;;;;;70.57;30.60;;;10.40;99.90;;;;;;5117023;28;20530;-71
2021/11/17 13:46:58;;;;;;;63.47;29.23;;;10.40;99.90;;;;;;5117269;28;20442;-71
2021/11/17 13:49:27;;;;;;;60.30;27.97;;;10.30;99.90;;;;;;5117348;28;20435;-71
2021/11/17 13:51:54;;;;;;;63.43;28.70;;;10.30;99.90;;;;;;5117515;28;20513;-71
2021/11/17 13:54:21;;;;;;;55.00;29.20;;;10.40;99.90;;;;;;5116758;28;20937;-71
2021/11/17 13:56:50;;;;;;;53.13;28.90;;;10.40;99.90;;;;;;5117050;28;20439;-71
2021/11/17 13:59:18;;;;;;;66.83;28.70;;;10.40;99.90;;;;;;5117029;28;20442;-71
2021/11/17 14:01:45;;;;;;;59.13;27.57;;;10.40;99.90;;;;;;5117022;28;20450;-70
2021/11/17 14:04:12;;;;;;;61.57;27.27;;;10.40;99.90;;;;;;5116525;28;20997;-71
2021/11/17 14:06:41;;;;;;;57.30;25.53;;;10.50;99.90;;;;;;5116892;28;20439;-71
2021/11/17 14:09:08;;;;;;;51.67;24.70;;;10.50;99.90;;;;;;5116893;28;20451;-71
2021/11/17 14:11:35;;;;;;;54.27;27.43;;;10.50;99.90;;;;;;5116704;28;20672;-71
2021/11/17 14:14:03;;;;;;;54.03;24.53;;;10.50;99.90;;;;;;5116518;28;20443;-71
2021/11/17 14:16:30;;;;;;;54.33;26.00;;;10.60;99.90;;;;;;5116682;28;20466;-71
2021/11/17 14:18:56;;;;;;;45.93;23.47;;;10.60;99.80;;;;;;5116686;28;20454;-70
2021/11/17 14:21:25;;;;;;;53.53;22.40;;;10.70;99.80;;;;;;5116676;28;20442;-71
2021/11/17 14:23:53;;;;;;;43.47;22.60;;;10.70;99.80;;;;;;5116547;28;20442;-71
2021/11/17 14:26:20;;;;;;;41.27;19.97;;;10.80;99.50;;;;;;5116450;28;20470;-71
2021/11/17 14:28:50;;;;;;;45.97;23.90;;;10.80;99.40;;;;;;5116525;28;20450;-71
2021/11/17 14:31:23;;;;;;;42.03;22.97;;;10.90;99.20;;;;;;5116429;28;20475;-71
2021/11/17 14:33:56;;;;;;;39.70;21.33;;;10.90;98.90;;;;;;5116276;28;20512;-71
2021/11/17 14:36:25;;;;;;;41.63;22.33;;;10.90;98.80;;;;;;5116228;28;20474;-71
2021/11/17 14:38:52;;;;;;;44.50;23.03;;;10.90;98.70;;;;;;5115973;28;20952;-71
2021/11/17 14:41:19;;;;;;;42.70;22.27;;;10.90;98.80;;;;;;5116207;28;20443;-71
2021/11/17 14:43:47;;;;;;;49.67;23.87;;;10.80;98.80;;;;;;5115729;28;20471;-71
2021/11/17 14:46:15;;;;;;;43.77;23.47;;;10.90;99.00;;;;;;5115974;28;20470;-71
2021/11/17 14:48:43;;;;;;;45.50;25.83;;;10.80;99.00;;;;;;5116053;28;20445;-71
2021/11/17 14:51:12;;;;;;;48.70;28.00;;;10.80;99.00;;;;;;5115883;28;20552;-71
2021/11/17 14:53:40;;;;;;;42.40;22.77;;;10.80;98.90;;;;;;5116147;28;20446;-69
2021/11/17 14:56:06;;;;;;;47.93;24.47;;;10.80;99.00;;;;;;5115567;28;20470;-69
2021/11/17 14:58:33;;;;;;;51.20;25.73;;;10.80;98.90;;;;;;5115646;28;20427;-69
2021/11/17 15:01:04;;;;;;;56.73;24.47;;;10.80;99.00;;;;;;5115774;28;20446;-69
2021/11/17 15:03:31;;;;;;;46.97;25.30;;;10.80;99.00;;;;;;5115863;28;20434;-68
2021/11/17 15:05:59;;;;;;;49.30;26.13;;;10.80;99.10;;;;;;5116212;28;20837;-78
2021/11/17 15:08:26;;;;;;;54.23;26.50;;;10.70;99.10;;;;;;5115726;28;20443;-76
2021/11/17 15:10:52;;;;;;;58.20;26.33;;;10.70;99.20;;;;;;5115523;28;20862;-74
2021/11/17 15:13:20;;;;;;;59.70;27.93;;;10.80;99.10;;;;;;5115576;28;20454;-71
2021/11/17 15:15:49;;;;;;;48.20;26.10;;;10.80;99.00;;;;;;5115406;28;20463;-74
2021/11/17 15:18:20;;;;;;;52.77;27.07;;;10.80;99.00;;;;;;5115457;28;20758;-68
2021/11/17 15:20:47;;;;;;;58.10;26.97;;;10.80;98.90;;;;;;5115649;28;20435;-73
2021/11/17 15:23:16;;;;;;;49.37;25.73;;;10.70;98.80;;;;;;5115406;28;20457;-80
2021/11/17 15:25:45;;;;;;;57.17;26.07;;;10.70;98.80;;;;;;5115555;28;20848;-74
2021/11/17 15:28:14;;;;;;;44.33;23.90;;;10.80;98.90;;;;;;5115691;28;20455;-75
2021/11/17 15:30:44;;;;;;;59.60;27.90;;;10.80;98.80;;;;;;5115519;28;20489;-72
2021/11/17 15:33:12;;;;;;;47.20;26.90;;;10.80;98.60;;;;;;5115886;28;20435;-71
2021/11/17 15:35:39;;;;;;;49.70;25.37;;;10.80;98.50;;;;;;5115744;28;20808;-75
2021/11/17 15:38:09;;;;;;;50.60;29.13;;;10.90;98.50;;;;;;5115198;28;20450;-71
2021/11/17 15:40:40;;;;;;;47.47;25.73;;;10.90;98.40;;;;;;5115188;28;20431;-71
2021/11/17 15:43:07;;;;;;;50.67;25.30;;;10.90;98.30;;;;;;5114315;28;20463;-69
2021/11/17 15:45:34;;;;;;;48.73;25.17;;;10.90;98.40;;;;;;5114682;28;20466;-69